Time;durP1;ratioP1;P1;durP2;ratioP2;P2;SDS_P1;SDS_P2;PMS_P1;PMS_P2;Temp;Humidity;BMP_temperature;BMP_pressure;BME280_temperature;BME280_humidity;BME280_pressure;Samples;Min_cycle;Max_cycle;Signal;HPM_P1;HPM_P2
2022/07/01 00:01:43;;;;;;;1.35;0.65;;;;;;;;;;5014879;28;20026;-61
2022/07/01 00:04:10;;;;;;;0.82;0.68;;;;;;;;;;5013939;28;20473;-62
2022/07/01 00:06:37;;;;;;;2.05;0.68;;;;;;;;;;5010643;28;20030;-62
2022/07/01 00:09:08;;;;;;;2.30;0.88;;;;;;;;;;5009281;28;20072;-61
2022/07/01 00:11:35;;;;;;;1.73;0.60;;;;;;;;;;5009201;28;20465;-61
2022/07/01 00:14:01;;;;;;;1.23;0.93;;;;;;;;;;5008244;28;20473;-62
2022/07/01 00:16:28;;;;;;;2.00;1.23;;;;;;;;;;5012494;28;20393;-61
2022/07/01 00:18:55;;;;;;;1.13;0.90;;;;;;;;;;5013936;28;20026;-62
2022/07/01 00:21:21;;;;;;;1.20;1.08;;;;;;;;;;5014490;28;20037;-62
2022/07/01 00:23:48;;;;;;;2.00;1.20;;;;;;;;;;5013723;28;20022;-61
2022/07/01 00:26:15;;;;;;;1.58;1.30;;;;;;;;;;5014338;28;20026;-61
2022/07/01 00:28:42;;;;;;;2.72;1.70;;;;;;;;;;5010550;28;20074;-62
2022/07/01 00:31:08;;;;;;;3.63;1.90;;;;;;;;;;5008975;28;20512;-61
2022/07/01 00:33:35;;;;;;;2.43;1.73;;;;;;;;;;5008335;28;20048;-62
2022/07/01 00:36:02;;;;;;;2.70;1.43;;;;;;;;;;5008794;28;20447;-62
2022/07/01 00:38:28;;;;;;;1.27;1.15;;;;;;;;;;5011525;28;20022;-61
2022/07/01 00:40:55;;;;;;;2.70;1.50;;;;;;;;;;5013001;28;20030;-62
2022/07/01 00:43:26;;;;;;;1.87;1.33;;;;;;;;;;5013895;28;20057;-62
2022/07/01 00:45:53;;;;;;;2.33;1.53;;;;;;;;;;5013464;28;20108;-61
2022/07/01 00:48:20;;;;;;;3.67;2.27;;;;;;;;;;5013913;28;20029;-62
2022/07/01 00:50:47;;;;;;;2.07;1.37;;;;;;;;;;5011072;28;20076;-61
2022/07/01 00:53:15;;;;;;;2.90;1.93;;;;;;;;;;5008476;28;20034;-61
2022/07/01 00:55:42;;;;;;;2.00;1.27;;;;;;;;;;5008260;28;20376;-61
2022/07/01 00:58:10;;;;;;;2.00;1.57;;;;;;;;;;5007719;28;20408;-63
2022/07/01 01:00:38;;;;;;;1.67;1.10;;;;;;;;;;5009609;28;20092;-61
2022/07/01 01:03:07;;;;;;;3.10;2.10;;;;;;;;;;5013156;28;20117;-61
2022/07/01 01:05:34;;;;;;;1.47;1.20;;;;;;;;;;5013700;28;20412;-61
2022/07/01 01:08:01;;;;;;;2.43;1.37;;;;;;;;;;5013575;28;20030;-61
2022/07/01 01:10:28;;;;;;;3.07;1.37;;;;;;;;;;5013434;28;20097;-61
2022/07/01 01:12:56;;;;;;;1.47;1.17;;;;;;;;;;5010250;28;20034;-61
2022/07/01 01:15:23;;;;;;;3.17;1.90;;;;;;;;;;5008207;28;20023;-61
2022/07/01 01:17:50;;;;;;;4.57;2.07;;;;;;;;;;5008039;28;20030;-62
2022/07/01 01:20:17;;;;;;;2.77;1.57;;;;;;;;;;5008186;28;20033;-61
2022/07/01 01:22:48;;;;;;;2.17;1.70;;;;;;;;;;5009478;28;20061;-61
2022/07/01 01:25:15;;;;;;;2.07;1.47;;;;;;;;;;5013387;28;20030;-61
2022/07/01 01:27:42;;;;;;;7.80;1.97;;;;;;;;;;5012998;28;20029;-61
2022/07/01 01:30:11;;;;;;;3.30;1.90;;;;;;;;;;5013170;28;20018;-61
2022/07/01 01:32:38;;;;;;;3.13;2.17;;;;;;;;;;5012602;28;20038;-61
2022/07/01 01:35:05;;;;;;;3.87;2.50;;;;;;;;;;5010728;28;20034;-61
2022/07/01 01:37:32;;;;;;;3.97;2.07;;;;;;;;;;5007278;28;20037;-61
2022/07/01 01:39:58;;;;;;;7.57;2.53;;;;;;;;;;5006323;28;20100;-61
2022/07/01 01:42:25;;;;;;;2.57;2.30;;;;;;;;;;5006965;28;20045;-61
2022/07/01 01:44:51;;;;;;;8.70;2.43;;;;;;;;;;5008435;28;20439;-63
2022/07/01 01:47:18;;;;;;;2.53;1.57;;;;;;;;;;5012595;28;20543;-63
2022/07/01 01:49:45;;;;;;;3.47;1.77;;;;;;;;;;5012752;28;20034;-63
2022/07/01 01:52:12;;;;;;;4.17;2.50;;;;;;;;;;5012768;28;20127;-63
2022/07/01 01:54:38;;;;;;;4.83;2.03;;;;;;;;;;5012846;28;20084;-63
2022/07/01 01:57:05;;;;;;;2.00;1.57;;;;;;;;;;5010813;28;20076;-61
2022/07/01 01:59:32;;;;;;;12.80;1.80;;;;;;;;;;5007228;28;20030;-61
2022/07/01 02:01:59;;;;;;;9.10;2.43;;;;;;;;;;5006977;28;20026;-61
2022/07/01 02:04:27;;;;;;;8.53;2.07;;;;;;;;;;5007246;28;20058;-61
2022/07/01 02:06:54;;;;;;;1.77;1.07;;;;;;;;;;5008129;28;20033;-61
2022/07/01 02:09:21;;;;;;;3.90;1.70;;;;;;;;;;5012228;28;20025;-61
2022/07/01 02:11:48;;;;;;;3.67;1.90;;;;;;;;;;5012312;28;20030;-61
2022/07/01 02:14:15;;;;;;;2.17;1.50;;;;;;;;;;5012647;28;20018;-61
2022/07/01 02:16:41;;;;;;;1.97;1.60;;;;;;;;;;5012520;28;20049;-61
2022/07/01 02:19:08;;;;;;;1.37;1.23;;;;;;;;;;5010812;28;20057;-61
2022/07/01 02:21:35;;;;;;;2.20;1.57;;;;;;;;;;5007319;28;20032;-61
2022/07/01 02:24:01;;;;;;;1.90;1.37;;;;;;;;;;5007597;28;20036;-61
2022/07/01 02:26:28;;;;;;;2.67;2.10;;;;;;;;;;5007492;28;20049;-61
2022/07/01 02:28:55;;;;;;;3.63;1.43;;;;;;;;;;5007163;28;20104;-62
2022/07/01 02:31:21;;;;;;;2.37;1.80;;;;;;;;;;5012608;28;20104;-61
2022/07/01 02:33:48;;;;;;;4.73;1.70;;;;;;;;;;5012312;28;20113;-61
2022/07/01 02:36:15;;;;;;;2.10;1.53;;;;;;;;;;5013110;28;20358;-60
2022/07/01 02:38:41;;;;;;;1.67;1.43;;;;;;;;;;5016295;28;20476;-60
2022/07/01 02:41:09;;;;;;;1.13;1.03;;;;;;;;;;5015664;28;20492;-61
2022/07/01 02:43:36;;;;;;;3.57;1.97;;;;;;;;;;5011251;28;20040;-60
2022/07/01 02:46:03;;;;;;;2.83;1.60;;;;;;;;;;5011335;28;20022;-61
2022/07/01 02:48:30;;;;;;;9.00;2.03;;;;;;;;;;5011435;28;20509;-61
2022/07/01 02:50:56;;;;;;;4.23;2.47;;;;;;;;;;5011112;28;20053;-61
2022/07/01 02:53:23;;;;;;;2.23;1.23;;;;;;;;;;5015275;28;20034;-60
2022/07/01 02:55:50;;;;;;;2.80;1.97;;;;;;;;;;5016142;28;20029;-60
2022/07/01 02:58:17;;;;;;;4.20;1.63;;;;;;;;;;5015978;28;20209;-60
2022/07/01 03:00:43;;;;;;;3.50;1.40;;;;;;;;;;5016300;28;20038;-60
2022/07/01 03:03:10;;;;;;;4.57;2.13;;;;;;;;;;5016141;28;20500;-60
2022/07/01 03:05:37;;;;;;;2.83;1.73;;;;;;;;;;5010813;28;20723;-60
2022/07/01 03:08:03;;;;;;;2.53;1.50;;;;;;;;;;5010978;28;20026;-61
2022/07/01 03:10:30;;;;;;;1.57;1.20;;;;;;;;;;5010503;28;20041;-61
2022/07/01 03:12:59;;;;;;;2.40;1.47;;;;;;;;;;5010831;28;20701;-60
2022/07/01 03:15:25;;;;;;;2.33;1.90;;;;;;;;;;5014308;28;20030;-60
2022/07/01 03:17:52;;;;;;;1.27;0.97;;;;;;;;;;5015822;28;20354;-60
2022/07/01 03:20:19;;;;;;;3.20;1.37;;;;;;;;;;5015766;28;20505;-60
2022/07/01 03:22:46;;;;;;;3.07;2.10;;;;;;;;;;5015754;28;20032;-60
2022/07/01 03:25:13;;;;;;;2.43;1.70;;;;;;;;;;5015302;28;20018;-60
2022/07/01 03:27:44;;;;;;;1.23;0.87;;;;;;;;;;5011016;28;20034;-62
2022/07/01 03:30:13;;;;;;;5.17;1.60;;;;;;;;;;5010873;28;20418;-63
2022/07/01 03:32:40;;;;;;;3.27;1.93;;;;;;;;;;5010575;28;20125;-62
2022/07/01 03:35:35;;;;;;;2.67;1.40;;;;;;;;;;5010458;28;20029;-62
2022/07/01 03:37:53;;;;;;;0.60;0.60;;;;;;;;;;5014372;28;20109;-62
2022/07/01 03:40:20;;;;;;;1.47;1.30;;;;;;;;;;5015481;28;20033;-62
2022/07/01 03:42:46;;;;;;;7.80;1.13;;;;;;;;;;5015391;28;20030;-62
2022/07/01 03:45:13;;;;;;;3.33;1.93;;;;;;;;;;5015207;28;20113;-63
2022/07/01 03:47:45;;;;;;;1.03;0.90;;;;;;;;;;5014131;28;20033;-63
2022/07/01 03:50:12;;;;;;;1.67;0.57;;;;;;;;;;5009795;28;20072;-63
2022/07/01 03:52:41;;;;;;;1.07;0.97;;;;;;;;;;5009801;28;20056;-62
2022/07/01 03:55:11;;;;;;;1.70;1.20;;;;;;;;;;5010157;28;20032;-62
2022/07/01 03:57:37;;;;;;;1.93;1.53;;;;;;;;;;5009869;28;20076;-62
2022/07/01 04:00:05;;;;;;;1.23;1.03;;;;;;;;;;5014228;28;20101;-63
2022/07/01 04:02:32;;;;;;;2.20;0.90;;;;;;;;;;4995300;28;20077;-62
2022/07/01 04:04:58;;;;;;;1.60;1.00;;;;;;;;;;4995360;28;20040;-62
2022/07/01 04:07:26;;;;;;;3.47;1.83;;;;;;;;;;5010453;28;20079;-62
2022/07/01 04:09:53;;;;;;;1.30;0.93;;;;;;;;;;5014812;28;20026;-62
2022/07/01 04:12:19;;;;;;;13.13;1.47;;;;;;;;;;5009973;28;20037;-62
2022/07/01 04:14:46;;;;;;;3.20;1.50;;;;;;;;;;5009823;28;20381;-62
2022/07/01 04:17:13;;;;;;;1.03;0.77;;;;;;;;;;5009231;28;20038;-63
2022/07/01 04:19:40;;;;;;;1.60;1.33;;;;;;;;;;5009632;28;20469;-63
2022/07/01 04:24:51;;;;;;;1.80;0.95;;;;;;;;;;5014671;28;20048;-62
2022/07/01 04:27:18;;;;;;;1.70;0.90;;;;;;;;;;5014198;28;20044;-62
2022/07/01 04:29:44;;;;;;;2.23;1.13;;;;;;;;;;5014580;28;20040;-62
2022/07/01 04:32:11;;;;;;;2.33;1.00;;;;;;;;;;5014491;28;20108;-62
2022/07/01 04:34:38;;;;;;;1.17;0.90;;;;;;;;;;5009369;28;20052;-62
2022/07/01 04:37:04;;;;;;;1.93;0.90;;;;;;;;;;5008981;28;20492;-63
2022/07/01 04:39:31;;;;;;;1.03;0.70;;;;;;;;;;5009232;28;20457;-62
2022/07/01 04:42:01;;;;;;;5.43;1.63;;;;;;;;;;5009340;28;20029;-62
2022/07/01 04:44:37;;;;;;;4.23;1.30;;;;;;;;;;5013312;28;20061;-62
2022/07/01 04:47:05;;;;;;;2.80;1.50;;;;;;;;;;5013504;28;20022;-62
2022/07/01 04:49:31;;;;;;;2.43;1.67;;;;;;;;;;5013763;28;20469;-62
2022/07/01 04:51:58;;;;;;;1.33;1.13;;;;;;;;;;5012323;28;20014;-62
2022/07/01 04:54:25;;;;;;;2.53;1.47;;;;;;;;;;5013999;28;20088;-63
2022/07/01 04:56:52;;;;;;;2.07;1.07;;;;;;;;;;5009007;28;20114;-62
2022/07/01 04:59:19;;;;;;;0.73;0.70;;;;;;;;;;5008522;28;20024;-62
2022/07/01 05:01:49;;;;;;;1.90;1.13;;;;;;;;;;5008572;28;20080;-62
2022/07/01 05:04:17;;;;;;;0.73;0.73;;;;;;;;;;5008720;28;20393;-63
2022/07/01 05:06:43;;;;;;;9.67;1.77;;;;;;;;;;5012736;28;20017;-62
2022/07/01 05:09:11;;;;;;;1.83;1.03;;;;;;;;;;5013646;28;20505;-62
2022/07/01 05:11:38;;;;;;;1.30;0.70;;;;;;;;;;5013619;28;20429;-62
2022/07/01 05:14:06;;;;;;;2.80;1.50;;;;;;;;;;5013285;28;20036;-62
2022/07/01 05:16:33;;;;;;;2.97;1.73;;;;;;;;;;5013671;28;20026;-62
2022/07/01 05:21:57;;;;;;;;;;;;;;;;;;5008925;28;20092;-62
2022/07/01 05:24:28;;;;;;;1.57;1.43;;;;;;;;;;5008472;28;19945;-63
2022/07/01 05:26:55;;;;;;;0.80;0.80;;;;;;;;;;5008191;28;20056;-62
2022/07/01 05:29:22;;;;;;;1.63;1.20;;;;;;;;;;5013110;28;20101;-62
2022/07/01 05:31:48;;;;;;;1.87;1.00;;;;;;;;;;5013088;28;20049;-63
2022/07/01 05:34:15;;;;;;;1.57;0.70;;;;;;;;;;5012602;28;20030;-62
2022/07/01 05:36:41;;;;;;;3.50;1.63;;;;;;;;;;5013313;28;20424;-62
2022/07/01 05:39:08;;;;;;;6.13;1.40;;;;;;;;;;5013340;28;20481;-62
2022/07/01 05:41:35;;;;;;;2.10;1.37;;;;;;;;;;5008001;28;20053;-63
2022/07/01 05:44:02;;;;;;;1.73;1.20;;;;;;;;;;5007913;28;20484;-62
2022/07/01 05:46:29;;;;;;;1.23;0.80;;;;;;;;;;5007997;28;20034;-62
2022/07/01 05:48:55;;;;;;;1.13;0.77;;;;;;;;;;5008088;28;20026;-62
2022/07/01 05:51:22;;;;;;;3.30;1.00;;;;;;;;;;5011971;28;20373;-62
2022/07/01 05:53:49;;;;;;;0.90;0.70;;;;;;;;;;5013003;28;20076;-62
2022/07/01 05:56:15;;;;;;;1.90;0.70;;;;;;;;;;5012887;28;20034;-62
2022/07/01 05:58:42;;;;;;;0.63;0.57;;;;;;;;;;5012785;28;20037;-62
2022/07/01 06:01:09;;;;;;;2.37;1.47;;;;;;;;;;5012972;28;20418;-62
2022/07/01 06:03:36;;;;;;;4.87;1.03;;;;;;;;;;5008331;28;20037;-62
2022/07/01 06:06:02;;;;;;;1.37;0.70;;;;;;;;;;5007446;28;20374;-62
2022/07/01 06:08:29;;;;;;;1.40;0.97;;;;;;;;;;5007709;28;20441;-62
2022/07/01 06:10:56;;;;;;;1.53;1.17;;;;;;;;;;5006921;28;20030;-62
2022/07/01 06:13:22;;;;;;;1.10;0.80;;;;;;;;;;5011494;28;20033;-62
2022/07/01 06:15:49;;;;;;;3.80;2.03;;;;;;;;;;5012719;28;20372;-62
2022/07/01 06:18:16;;;;;;;5.50;1.53;;;;;;;;;;5012289;28;20544;-63
2022/07/01 06:20:42;;;;;;;1.53;0.90;;;;;;;;;;5012756;28;20056;-62
2022/07/01 06:23:09;;;;;;;1.67;0.40;;;;;;;;;;5012331;28;20034;-62
2022/07/01 06:25:36;;;;;;;1.17;0.90;;;;;;;;;;5008291;28;20096;-62
2022/07/01 06:28:02;;;;;;;0.60;0.60;;;;;;;;;;5007492;28;20061;-62
2022/07/01 06:30:29;;;;;;;0.57;0.50;;;;;;;;;;5007793;28;20049;-62
2022/07/01 06:32:56;;;;;;;5.20;1.50;;;;;;;;;;5006873;28;20497;-62
2022/07/01 06:35:22;;;;;;;1.70;1.33;;;;;;;;;;5010702;28;20076;-62
2022/07/01 06:37:49;;;;;;;1.87;0.97;;;;;;;;;;5012596;28;20367;-62
2022/07/01 06:40:16;;;;;;;1.47;1.13;;;;;;;;;;5012383;28;20080;-62
2022/07/01 06:42:43;;;;;;;1.20;1.10;;;;;;;;;;5011811;28;20108;-62
2022/07/01 06:45:11;;;;;;;1.40;1.03;;;;;;;;;;5012058;28;20033;-62
2022/07/01 06:47:37;;;;;;;3.63;1.17;;;;;;;;;;5009065;28;20358;-62
2022/07/01 06:50:05;;;;;;;2.50;1.47;;;;;;;;;;5007590;28;20057;-62
2022/07/01 06:52:31;;;;;;;1.03;0.93;;;;;;;;;;5007338;28;20088;-62
2022/07/01 06:54:58;;;;;;;0.10;0.10;;;;;;;;;;5007263;28;20049;-62
2022/07/01 06:57:25;;;;;;;1.70;1.13;;;;;;;;;;5009927;28;20026;-62
2022/07/01 06:59:51;;;;;;;0.53;0.40;;;;;;;;;;5012246;28;20504;-62
2022/07/01 07:02:18;;;;;;;10.13;0.93;;;;;;;;;;5011867;28;20436;-62
2022/07/01 07:04:45;;;;;;;1.50;0.90;;;;;;;;;;5012315;28;20377;-62
2022/07/01 07:07:11;;;;;;;1.63;0.80;;;;;;;;;;5012259;28;20025;-62
2022/07/01 07:09:38;;;;;;;2.17;1.03;;;;;;;;;;5009111;28;20022;-62
2022/07/01 07:12:05;;;;;;;0.70;0.70;;;;;;;;;;5007004;28;20030;-63
2022/07/01 07:14:31;;;;;;;3.20;1.47;;;;;;;;;;5007002;28;20148;-62
2022/07/01 07:16:58;;;;;;;5.00;1.30;;;;;;;;;;5007310;28;20029;-62
2022/07/01 07:19:25;;;;;;;1.50;1.40;;;;;;;;;;5009630;28;20026;-62
2022/07/01 07:21:51;;;;;;;2.60;1.60;;;;;;;;;;5012016;28;20030;-62
2022/07/01 07:24:18;;;;;;;3.50;1.57;;;;;;;;;;5015180;28;20034;-60
2022/07/01 07:26:45;;;;;;;10.80;1.03;;;;;;;;;;5015535;28;20034;-61
2022/07/01 07:29:12;;;;;;;3.43;1.10;;;;;;;;;;5015697;28;20373;-60
2022/07/01 07:31:38;;;;;;;6.17;1.97;;;;;;;;;;5012528;28;20028;-60
2022/07/01 07:34:05;;;;;;;1.60;1.07;;;;;;;;;;5010134;28;20500;-61
2022/07/01 07:36:32;;;;;;;2.90;1.40;;;;;;;;;;5010487;28;20440;-60
2022/07/01 07:38:59;;;;;;;1.10;1.00;;;;;;;;;;5010361;28;20528;-61
2022/07/01 07:41:25;;;;;;;1.30;0.80;;;;;;;;;;5012331;28;20025;-60
2022/07/01 07:43:52;;;;;;;1.23;1.13;;;;;;;;;;5015123;28;20040;-59
2022/07/01 07:46:18;;;;;;;0.83;0.73;;;;;;;;;;5015201;28;20038;-60
2022/07/01 07:48:45;;;;;;;2.17;1.43;;;;;;;;;;5014604;28;20024;-60
2022/07/01 07:51:16;;;;;;;1.03;0.93;;;;;;;;;;5015271;28;20018;-60
2022/07/01 07:53:43;;;;;;;2.00;0.80;;;;;;;;;;5012576;28;20037;-60
2022/07/01 07:56:10;;;;;;;1.70;0.73;;;;;;;;;;5010046;28;20026;-60
2022/07/01 07:58:36;;;;;;;1.13;1.00;;;;;;;;;;5009982;28;20072;-59
2022/07/01 08:01:03;;;;;;;1.50;0.97;;;;;;;;;;5010105;28;20026;-60
2022/07/01 08:03:30;;;;;;;2.10;1.50;;;;;;;;;;5011254;28;20026;-60
2022/07/01 08:05:56;;;;;;;1.33;1.20;;;;;;;;;;5014345;28;20079;-60
2022/07/01 08:08:23;;;;;;;1.20;0.90;;;;;;;;;;5015038;28;20584;-60
2022/07/01 08:10:49;;;;;;;2.77;0.90;;;;;;;;;;5015113;28;20026;-60
2022/07/01 08:13:16;;;;;;;0.73;0.73;;;;;;;;;;5014304;28;20041;-60
2022/07/01 08:15:43;;;;;;;1.30;1.20;;;;;;;;;;5013083;28;20037;-60
2022/07/01 08:18:09;;;;;;;0.53;0.53;;;;;;;;;;5009829;28;20022;-59
2022/07/01 08:20:36;;;;;;;1.57;1.13;;;;;;;;;;5009496;28;20354;-60
2022/07/01 08:23:03;;;;;;;0.60;0.60;;;;;;;;;;5009046;28;20041;-59
2022/07/01 08:25:29;;;;;;;1.53;1.07;;;;;;;;;;5010068;28;20041;-60
2022/07/01 08:27:56;;;;;;;2.37;1.80;;;;;;;;;;5014754;28;20116;-60
2022/07/01 08:30:23;;;;;;;1.30;0.90;;;;;;;;;;5014357;28;20424;-59
2022/07/01 08:32:49;;;;;;;2.30;0.87;;;;;;;;;;5013860;28;20034;-60
2022/07/01 08:35:16;;;;;;;2.80;1.23;;;;;;;;;;5013740;28;20026;-59
2022/07/01 08:37:42;;;;;;;1.13;1.03;;;;;;;;;;5012781;28;20477;-60
2022/07/01 08:40:09;;;;;;;1.37;1.00;;;;;;;;;;5008826;28;20025;-60
2022/07/01 08:42:36;;;;;;;0.33;0.33;;;;;;;;;;5009234;28;20157;-61
2022/07/01 08:45:03;;;;;;;0.73;0.70;;;;;;;;;;5009371;28;20117;-59
2022/07/01 08:47:29;;;;;;;0.57;0.57;;;;;;;;;;5009532;28;20493;-60
2022/07/01 08:49:56;;;;;;;1.33;1.23;;;;;;;;;;5013799;28;20196;-60
2022/07/01 08:52:22;;;;;;;0.60;0.60;;;;;;;;;;5013944;28;20448;-59
2022/07/01 08:54:49;;;;;;;0.67;0.67;;;;;;;;;;5013151;28;20102;-60
2022/07/01 08:57:21;;;;;;;0.53;0.53;;;;;;;;;;5013915;28;20113;-60
2022/07/01 09:00:00;;;;;;;0.70;0.70;;;;;;;;;;5013052;28;20097;-60
2022/07/01 09:02:28;;;;;;;1.13;1.03;;;;;;;;;;5008821;28;20473;-60
2022/07/01 09:05:07;;;;;;;1.17;1.07;;;;;;;;;;5008600;28;20033;-59
2022/07/01 09:07:34;;;;;;;1.43;1.30;;;;;;;;;;5008752;28;20084;-60
2022/07/01 09:10:12;;;;;;;0.87;0.77;;;;;;;;;;5009538;28;20076;-59
2022/07/01 09:12:40;;;;;;;1.40;1.00;;;;;;;;;;5013630;28;20029;-59
2022/07/01 09:15:19;;;;;;;1.40;1.10;;;;;;;;;;5013393;28;20030;-59
2022/07/01 09:17:46;;;;;;;2.87;0.87;;;;;;;;;;5013628;28;20022;-60
2022/07/01 09:20:28;;;;;;;1.43;1.03;;;;;;;;;;5013241;28;20509;-60
2022/07/01 09:23:14;;;;;;;12.20;1.17;;;;;;;;;;5010866;28;20108;-60
2022/07/01 09:25:45;;;;;;;1.03;0.93;;;;;;;;;;5007636;28;20029;-59
2022/07/01 09:28:13;;;;;;;1.10;1.00;;;;;;;;;;5008388;28;20172;-59
2022/07/01 09:30:41;;;;;;;2.70;0.93;;;;;;;;;;5007737;28;20026;-60
2022/07/01 09:33:18;;;;;;;1.17;0.73;;;;;;;;;;5011167;28;20033;-60
2022/07/01 09:35:46;;;;;;;0.80;0.70;;;;;;;;;;5013362;28;20030;-60
2022/07/01 09:38:14;;;;;;;2.87;0.77;;;;;;;;;;5012977;28;20026;-59
2022/07/01 09:40:59;;;;;;;2.63;1.07;;;;;;;;;;5013109;28;20445;-60
2022/07/01 09:43:33;;;;;;;2.65;1.45;;;;;;;;;;5013043;28;20026;-60
2022/07/01 09:46:00;;;;;;;0.20;0.20;;;;;;;;;;5007419;28;20041;-60
2022/07/01 09:48:33;;;;;;;1.67;1.23;;;;;;;;;;5007757;28;20500;-60
2022/07/01 09:51:00;;;;;;;0.60;0.50;;;;;;;;;;5007873;28;20539;-59
2022/07/01 09:53:26;;;;;;;1.13;0.93;;;;;;;;;;5007935;28;20092;-60
2022/07/01 09:55:53;;;;;;;2.03;1.33;;;;;;;;;;5012131;28;20238;-60
2022/07/01 09:58:20;;;;;;;0.40;0.40;;;;;;;;;;5012828;28;20481;-59
2022/07/01 10:00:47;;;;;;;0.73;0.63;;;;;;;;;;5012602;28;20116;-59
2022/07/01 10:03:13;;;;;;;1.97;0.80;;;;;;;;;;5012039;28;20034;-59
2022/07/01 10:05:40;;;;;;;1.67;0.90;;;;;;;;;;5012532;28;20029;-60
2022/07/01 10:08:25;;;;;;;1.97;0.73;;;;;;;;;;5008316;28;20108;-60
2022/07/01 10:10:52;;;;;;;1.55;1.27;;;;;;;;;;5007611;28;20044;-60
2022/07/01 10:13:22;;;;;;;0.37;0.33;;;;;;;;;;5007642;28;20033;-60
2022/07/01 10:15:49;;;;;;;1.27;0.87;;;;;;;;;;5007363;28;20404;-60
2022/07/01 10:18:26;;;;;;;0.50;0.50;;;;;;;;;;5012088;28;20500;-60
2022/07/01 10:20:53;;;;;;;0.93;0.93;;;;;;;;;;5012304;28;20044;-59
2022/07/01 10:23:21;;;;;;;4.80;1.53;;;;;;;;;;5012377;28;20028;-60
2022/07/01 10:25:48;;;;;;;1.23;0.93;;;;;;;;;;5012579;28;20465;-59
2022/07/01 10:28:19;;;;;;;0.93;0.73;;;;;;;;;;5012054;28;20108;-59
2022/07/01 10:30:55;;;;;;;0.50;0.50;;;;;;;;;;5007153;28;20038;-60
2022/07/01 10:33:33;;;;;;;4.50;1.13;;;;;;;;;;5007432;28;20121;-60
2022/07/01 10:36:06;;;;;;;0.77;0.73;;;;;;;;;;5007470;28;20422;-61
2022/07/01 10:38:33;;;;;;;1.10;1.00;;;;;;;;;;5007191;28;20113;-59
2022/07/01 10:41:17;;;;;;;0.63;0.63;;;;;;;;;;5012241;28;20106;-59
2022/07/01 10:43:49;;;;;;;3.37;1.33;;;;;;;;;;5012434;28;20030;-59
2022/07/01 10:46:34;;;;;;;1.33;0.60;;;;;;;;;;5012232;28;20037;-60
2022/07/01 10:49:00;;;;;;;0.70;0.68;;;;;;;;;;5012537;28;20320;-59
2022/07/01 10:51:46;;;;;;;4.13;1.33;;;;;;;;;;5009938;28;20032;-61
2022/07/01 10:54:13;;;;;;;1.67;1.57;;;;;;;;;;5007191;28;20462;-59
2022/07/01 10:56:40;;;;;;;1.37;1.17;;;;;;;;;;5007033;28;20034;-59
2022/07/01 10:59:07;;;;;;;0.23;0.23;;;;;;;;;;5011159;28;20026;-60
2022/07/01 11:01:33;;;;;;;1.63;1.07;;;;;;;;;;5012959;28;20108;-59
2022/07/01 11:04:01;;;;;;;0.70;0.60;;;;;;;;;;5015731;28;20025;-59
2022/07/01 11:06:27;;;;;;;1.83;1.67;;;;;;;;;;5016027;28;20028;-60
2022/07/01 11:08:55;;;;;;;1.47;1.17;;;;;;;;;;5016032;28;20030;-59
2022/07/01 11:11:22;;;;;;;1.57;1.40;;;;;;;;;;5015899;28;20358;-60
2022/07/01 11:13:50;;;;;;;6.80;0.97;;;;;;;;;;5012378;28;20056;-59
2022/07/01 11:16:17;;;;;;;2.47;1.07;;;;;;;;;;5010664;28;20018;-60
2022/07/01 11:18:44;;;;;;;7.13;2.77;;;;;;;;;;5010656;28;20036;-59
2022/07/01 11:21:12;;;;;;;3.43;2.87;;;;;;;;;;5010791;28;20507;-59
2022/07/01 11:23:38;;;;;;;1.67;1.37;;;;;;;;;;5012203;28;20021;-60
2022/07/01 11:26:05;;;;;;;3.33;2.13;;;;;;;;;;5015741;28;20065;-59
2022/07/01 11:28:32;;;;;;;5.23;1.77;;;;;;;;;;5015264;28;20030;-60
2022/07/01 11:30:59;;;;;;;1.60;1.27;;;;;;;;;;5015406;28;20076;-60
2022/07/01 11:33:26;;;;;;;1.30;1.00;;;;;;;;;;5014544;28;20049;-59
2022/07/01 11:41:26;;;;;;;1.48;1.23;;;;;;;;;;5010500;28;20048;-59
2022/07/01 11:43:53;;;;;;;2.13;1.67;;;;;;;;;;5009984;28;20030;-59
2022/07/01 11:46:20;;;;;;;2.10;1.37;;;;;;;;;;5013069;28;20040;-60
2022/07/01 11:48:49;;;;;;;2.23;1.40;;;;;;;;;;5014519;28;20424;-60
2022/07/01 11:51:19;;;;;;;1.60;1.47;;;;;;;;;;5014733;28;20425;-59
2022/07/01 11:53:51;;;;;;;1.20;1.10;;;;;;;;;;5015039;28;20154;-59
2022/07/01 11:56:39;;;;;;;3.03;2.00;;;;;;;;;;5015151;28;20034;-59
2022/07/01 11:59:05;;;;;;;0.67;0.67;;;;;;;;;;5010466;28;20036;-60
2022/07/01 12:01:34;;;;;;;3.47;1.93;;;;;;;;;;5009556;28;20400;-59
2022/07/01 12:04:04;;;;;;;1.10;1.00;;;;;;;;;;5009816;28;20088;-59
2022/07/01 12:06:31;;;;;;;4.47;1.07;;;;;;;;;;5009921;28;20033;-60
2022/07/01 12:08:58;;;;;;;1.30;0.90;;;;;;;;;;5011688;28;20026;-59
2022/07/01 12:11:26;;;;;;;1.33;1.23;;;;;;;;;;5014477;28;20118;-59
2022/07/01 12:13:53;;;;;;;1.60;1.50;;;;;;;;;;5014786;28;20034;-59
2022/07/01 12:16:20;;;;;;;3.17;1.17;;;;;;;;;;5014517;28;20045;-60
2022/07/01 12:18:53;;;;;;;0.50;0.50;;;;;;;;;;5014464;28;20473;-59
2022/07/01 12:21:19;;;;;;;2.20;1.43;;;;;;;;;;5010292;28;20022;-59
2022/07/01 12:24:06;;;;;;;4.43;2.80;;;;;;;;;;5009581;28;20026;-60
2022/07/01 12:26:33;;;;;;;1.70;1.37;;;;;;;;;;5009057;28;20037;-59
2022/07/01 12:28:59;;;;;;;1.80;1.50;;;;;;;;;;5009108;28;20030;-60
2022/07/01 12:31:26;;;;;;;0.57;0.57;;;;;;;;;;5013466;28;20121;-60
2022/07/01 12:33:53;;;;;;;1.13;1.03;;;;;;;;;;5014426;28;20481;-60
2022/07/01 12:36:19;;;;;;;1.40;1.27;;;;;;;;;;5014338;28;20064;-59
2022/07/01 12:38:46;;;;;;;1.60;1.50;;;;;;;;;;5013810;28;20076;-59
2022/07/01 12:41:35;;;;;;;2.80;1.90;;;;;;;;;;5014275;28;20057;-59
2022/07/01 12:44:20;;;;;;;2.07;1.73;;;;;;;;;;5009170;28;20428;-60
2022/07/01 12:46:47;;;;;;;5.00;1.90;;;;;;;;;;5008974;28;20068;-59
2022/07/01 12:49:21;;;;;;;1.13;0.93;;;;;;;;;;5008620;28;20108;-60
2022/07/01 12:51:48;;;;;;;3.50;1.58;;;;;;;;;;5009636;28;20037;-59
2022/07/01 12:54:31;;;;;;;2.40;1.20;;;;;;;;;;5013891;28;20044;-60
2022/07/01 12:56:58;;;;;;;1.50;1.40;;;;;;;;;;5013745;28;20432;-59
2022/07/01 12:59:25;;;;;;;2.67;2.00;;;;;;;;;;5013589;28;20030;-60
2022/07/01 13:01:51;;;;;;;3.83;1.57;;;;;;;;;;5013867;28;20093;-60
2022/07/01 13:04:28;;;;;;;6.53;2.33;;;;;;;;;;5012517;28;20479;-60
2022/07/01 13:06:55;;;;;;;1.43;1.33;;;;;;;;;;5008729;28;20029;-60
2022/07/01 13:09:21;;;;;;;1.80;1.20;;;;;;;;;;5008546;28;20034;-60
2022/07/01 13:11:48;;;;;;;1.97;1.87;;;;;;;;;;5008636;28;20025;-60
2022/07/01 13:14:15;;;;;;;22.93;1.70;;;;;;;;;;5008982;28;20096;-60
2022/07/01 13:16:41;;;;;;;2.83;1.70;;;;;;;;;;5013732;28;20022;-59
2022/07/01 13:19:08;;;;;;;7.00;3.07;;;;;;;;;;5013186;28;20037;-60
2022/07/01 13:21:35;;;;;;;2.70;1.57;;;;;;;;;;5013479;28;20038;-59
2022/07/01 13:24:01;;;;;;;6.90;2.47;;;;;;;;;;5013367;28;20092;-59
2022/07/01 13:26:28;;;;;;;5.00;2.07;;;;;;;;;;5012294;28;20026;-60
2022/07/01 13:28:54;;;;;;;1.70;1.60;;;;;;;;;;5008084;28;20473;-59
2022/07/01 13:31:21;;;;;;;19.87;2.63;;;;;;;;;;5007961;28;20500;-59
2022/07/01 13:33:48;;;;;;;7.47;3.13;;;;;;;;;;5008244;28;20038;-60
2022/07/01 13:36:15;;;;;;;6.70;3.53;;;;;;;;;;5008664;28;20029;-60
2022/07/01 13:38:43;;;;;;;8.77;2.77;;;;;;;;;;5012992;28;20421;-60
2022/07/01 13:41:10;;;;;;;3.33;2.57;;;;;;;;;;5012961;28;20091;-60
2022/07/01 13:43:36;;;;;;;3.33;2.47;;;;;;;;;;5013408;28;20092;-60
2022/07/01 13:46:03;;;;;;;2.57;1.87;;;;;;;;;;5012545;28;20033;-59
2022/07/01 13:48:30;;;;;;;2.17;1.73;;;;;;;;;;5011278;28;20107;-60
2022/07/01 13:50:56;;;;;;;1.73;1.57;;;;;;;;;;5008286;28;20026;-60
2022/07/01 13:53:23;;;;;;;5.17;2.50;;;;;;;;;;5008037;28;20042;-59
2022/07/01 13:55:50;;;;;;;2.33;1.70;;;;;;;;;;5007966;28;20098;-60
2022/07/01 13:58:17;;;;;;;3.17;2.13;;;;;;;;;;5007852;28;20026;-60
2022/07/01 14:00:44;;;;;;;5.83;3.53;;;;;;;;;;5012892;28;20026;-60
2022/07/01 14:03:10;;;;;;;3.07;1.93;;;;;;;;;;5011935;28;20026;-60
2022/07/01 14:05:37;;;;;;;1.50;1.20;;;;;;;;;;5012911;28;20018;-60
2022/07/01 14:08:04;;;;;;;2.77;2.30;;;;;;;;;;5012913;28;20057;-60
2022/07/01 14:10:34;;;;;;;3.77;2.67;;;;;;;;;;5012007;28;20038;-61
2022/07/01 14:13:01;;;;;;;2.53;1.97;;;;;;;;;;5007740;28;20033;-60
2022/07/01 14:15:28;;;;;;;1.70;1.60;;;;;;;;;;5007877;28;20065;-59
2022/07/01 14:17:54;;;;;;;3.00;1.93;;;;;;;;;;5007029;28;20025;-59
2022/07/01 14:20:21;;;;;;;2.80;1.90;;;;;;;;;;5007545;28;20416;-60
2022/07/01 14:22:48;;;;;;;2.93;2.00;;;;;;;;;;5012637;28;20552;-62
2022/07/01 14:25:14;;;;;;;3.37;2.00;;;;;;;;;;5012669;28;20050;-62
2022/07/01 14:27:41;;;;;;;2.97;1.60;;;;;;;;;;5012317;28;20026;-62
2022/07/01 14:30:08;;;;;;;3.83;2.33;;;;;;;;;;5012521;28;20022;-61
2022/07/01 14:32:35;;;;;;;3.63;1.93;;;;;;;;;;5013821;28;20029;-61
2022/07/01 14:35:02;;;;;;;3.00;1.73;;;;;;;;;;5011394;28;20053;-62
2022/07/01 14:37:29;;;;;;;2.43;2.13;;;;;;;;;;5011231;28;20030;-62
2022/07/01 14:39:56;;;;;;;7.30;1.93;;;;;;;;;;5010785;28;20025;-63
2022/07/01 14:42:24;;;;;;;6.57;2.40;;;;;;;;;;5011183;28;20045;-62
2022/07/01 14:44:52;;;;;;;6.60;2.63;;;;;;;;;;5016220;28;20046;-59
2022/07/01 14:47:19;;;;;;;9.63;2.40;;;;;;;;;;5016208;28;20038;-60
2022/07/01 14:49:46;;;;;;;2.17;1.53;;;;;;;;;;5015638;28;20037;-60
2022/07/01 14:52:14;;;;;;;1.53;1.30;;;;;;;;;;5016411;28;20492;-59
2022/07/01 14:54:41;;;;;;;2.40;1.90;;;;;;;;;;5016106;28;20185;-59
2022/07/01 14:57:07;;;;;;;2.47;1.90;;;;;;;;;;5011189;28;20030;-60
2022/07/01 14:59:34;;;;;;;2.20;1.53;;;;;;;;;;5010959;28;20141;-60